Time;durP1;ratioP1;P1;durP2;ratioP2;P2;SDS_P1;SDS_P2;PMS_P1;PMS_P2;Temp;Humidity;BMP_temperature;BMP_pressure;BME280_temperature;BME280_humidity;BME280_pressure;Samples;Min_cycle;Max_cycle;Signal;HPM_P1;HPM_P2
2023/05/12 00:01:06;;;;;;;4.93;3.95;;;13.80;68.50;;;;;;5083843;28;20235;-71
2023/05/12 00:03:55;;;;;;;6.78;4.45;;;14.00;68.30;;;;;;5074591;28;20767;-72
2023/05/12 00:06:44;;;;;;;7.47;4.30;;;14.10;67.50;;;;;;5074586;28;20220;-72
2023/05/12 00:09:35;;;;;;;5.78;4.22;;;13.80;67.90;;;;;;5071901;28;20336;-73
2023/05/12 00:12:23;;;;;;;6.22;4.30;;;13.50;67.90;;;;;;5076706;28;20219;-70
2023/05/12 00:15:15;;;;;;;6.03;3.92;;;13.50;68.40;;;;;;5089281;28;20229;-71
2023/05/12 00:18:03;;;;;;;6.45;4.15;;;13.60;68.40;;;;;;5081618;28;20698;-70
2023/05/12 00:20:54;;;;;;;10.75;4.18;;;13.50;69.10;;;;;;5062783;28;20232;-72
2023/05/12 00:23:43;;;;;;;8.30;4.68;;;13.20;68.70;;;;;;5085708;28;20246;-71
2023/05/12 00:26:32;;;;;;;8.45;4.03;;;13.10;69.10;;;;;;5078757;28;20230;-71
2023/05/12 00:29:20;;;;;;;5.32;3.78;;;13.30;69.50;;;;;;5069386;28;20314;-72
2023/05/12 00:32:10;;;;;;;5.28;3.67;;;13.60;69.00;;;;;;5086229;28;20275;-72
2023/05/12 00:34:59;;;;;;;8.38;4.07;;;13.20;68.50;;;;;;5102113;27;20245;-74
2023/05/12 00:37:48;;;;;;;4.80;3.63;;;13.20;69.10;;;;;;5099302;28;20227;-73
2023/05/12 00:40:37;;;;;;;5.90;3.78;;;13.40;69.80;;;;;;5111710;27;20218;-72
2023/05/12 00:43:26;;;;;;;8.73;4.43;;;13.50;68.30;;;;;;5099341;28;20955;-72
2023/05/12 00:46:15;;;;;;;10.40;4.20;;;13.20;69.00;;;;;;5070262;28;20300;-70
2023/05/12 00:49:05;;;;;;;6.97;3.95;;;13.30;68.80;;;;;;5072177;28;20899;-73
2023/05/12 00:51:56;;;;;;;7.28;4.18;;;13.30;68.90;;;;;;5098046;27;20227;-71
2023/05/12 00:54:46;;;;;;;7.90;4.40;;;13.40;68.30;;;;;;5064902;28;20686;-72
2023/05/12 00:57:35;;;;;;;7.47;4.18;;;13.30;68.80;;;;;;5084077;28;20729;-71
2023/05/12 01:00:24;;;;;;;7.63;4.30;;;13.20;69.00;;;;;;5078093;28;20586;-72
2023/05/12 01:03:13;;;;;;;8.75;4.07;;;13.10;68.60;;;;;;5073877;28;20223;-73
2023/05/12 01:06:12;;;;;;;6.05;3.75;;;13.30;68.80;;;;;;5064530;28;20262;-70
2023/05/12 01:09:02;;;;;;;6.68;3.97;;;13.00;68.90;;;;;;5066605;28;20725;-71
2023/05/12 01:11:51;;;;;;;5.47;3.70;;;13.30;69.50;;;;;;5099038;28;20219;-72
2023/05/12 01:14:41;;;;;;;8.60;4.40;;;13.30;68.20;;;;;;5085350;28;20246;-70
2023/05/12 01:17:34;;;;;;;9.13;3.92;;;13.20;68.60;;;;;;5082056;28;20219;-71
2023/05/12 01:20:28;;;;;;;8.10;4.20;;;13.00;69.00;;;;;;5063264;28;20219;-71
2023/05/12 01:23:19;;;;;;;7.20;3.85;;;13.00;68.90;;;;;;5077586;28;20224;-71
2023/05/12 01:26:13;;;;;;;8.07;3.78;;;13.20;69.60;;;;;;5091989;28;20227;-70
2023/05/12 01:29:03;;;;;;;6.15;3.67;;;12.90;70.20;;;;;;5089013;28;20230;-69
2023/05/12 01:31:52;;;;;;;6.75;4.05;;;12.80;69.60;;;;;;5095543;28;20237;-71
2023/05/12 01:34:42;;;;;;;6.70;4.07;;;12.90;70.10;;;;;;5076640;28;20227;-71
2023/05/12 01:37:32;;;;;;;7.75;4.15;;;13.00;69.70;;;;;;5075283;28;20238;-71
2023/05/12 01:40:23;;;;;;;8.73;4.40;;;13.10;69.60;;;;;;5074924;28;20219;-72
2023/05/12 01:43:14;;;;;;;6.38;3.95;;;13.00;69.50;;;;;;5081993;28;20238;-70
2023/05/12 01:46:02;;;;;;;6.43;3.92;;;13.10;69.40;;;;;;5071513;28;20224;-71
2023/05/12 01:48:52;;;;;;;8.45;4.00;;;12.90;69.00;;;;;;5081492;28;20312;-72
2023/05/12 01:51:40;;;;;;;6.18;3.80;;;13.10;69.50;;;;;;5091885;28;20999;-69
2023/05/12 01:54:29;;;;;;;7.90;4.20;;;12.80;70.00;;;;;;5080413;28;20224;-71
2023/05/12 01:57:18;;;;;;;6.85;3.80;;;12.80;70.20;;;;;;5072239;28;20220;-72
2023/05/12 02:00:11;;;;;;;5.60;3.58;;;12.90;70.40;;;;;;5099895;27;20313;-71
2023/05/12 02:03:03;;;;;;;5.97;3.97;;;13.00;70.10;;;;;;5082579;28;20232;-72
2023/05/12 02:05:52;;;;;;;5.38;3.90;;;13.00;70.00;;;;;;5099321;28;20273;-72
2023/05/12 02:08:41;;;;;;;8.15;3.95;;;13.20;70.10;;;;;;5101488;27;20566;-73
2023/05/12 02:11:30;;;;;;;7.60;4.25;;;13.10;69.90;;;;;;5067201;28;20227;-72
2023/05/12 02:14:19;;;;;;;7.15;3.90;;;13.00;70.40;;;;;;5061024;28;20243;-74
2023/05/12 02:17:09;;;;;;;6.72;3.60;;;12.90;69.90;;;;;;5087801;27;20224;-71
2023/05/12 02:19:58;;;;;;;7.15;4.35;;;12.90;69.90;;;;;;5059554;28;20261;-71
2023/05/12 02:22:47;;;;;;;7.35;4.10;;;12.90;70.50;;;;;;5061306;28;20936;-71
2023/05/12 02:25:36;;;;;;;8.77;4.25;;;12.70;70.00;;;;;;5094840;28;20318;-71
2023/05/12 02:28:25;;;;;;;5.03;3.90;;;12.70;71.10;;;;;;5078789;28;20600;-71
2023/05/12 02:31:14;;;;;;;5.30;4.15;;;12.80;70.40;;;;;;5082830;28;20228;-72
2023/05/12 02:34:04;;;;;;;8.18;4.00;;;12.80;70.70;;;;;;5094203;28;20227;-71
2023/05/12 02:36:54;;;;;;;8.25;4.07;;;12.70;70.20;;;;;;5071967;28;20709;-70
2023/05/12 02:39:43;;;;;;;7.30;3.85;;;12.80;71.10;;;;;;5091978;28;20246;-70
2023/05/12 02:42:34;;;;;;;7.88;3.88;;;12.60;70.60;;;;;;5087565;28;20730;-70
2023/05/12 02:45:23;;;;;;;6.05;4.30;;;12.70;71.50;;;;;;5077224;28;20251;-70
2023/05/12 02:48:12;;;;;;;7.18;3.90;;;12.70;71.40;;;;;;5086826;28;20310;-69
2023/05/12 02:51:02;;;;;;;6.32;3.83;;;12.70;70.60;;;;;;5080633;28;20236;-70
2023/05/12 02:53:52;;;;;;;8.02;4.00;;;12.70;71.60;;;;;;5089882;28;20222;-71
2023/05/12 02:56:41;;;;;;;7.85;4.30;;;12.80;71.00;;;;;;5091512;28;20218;-70
2023/05/12 02:59:29;;;;;;;6.13;3.58;;;12.50;71.30;;;;;;5086133;28;20237;-71
2023/05/12 03:02:18;;;;;;;11.82;4.38;;;12.70;71.70;;;;;;5075013;28;20239;-70
2023/05/12 03:05:09;;;;;;;5.57;3.70;;;12.70;71.30;;;;;;5078440;28;20223;-70
2023/05/12 03:07:59;;;;;;;9.10;3.80;;;12.70;71.70;;;;;;5087497;28;20246;-73
2023/05/12 03:10:48;;;;;;;5.13;4.03;;;12.90;71.50;;;;;;5104490;27;21136;-72
2023/05/12 03:13:37;;;;;;;6.68;3.58;;;12.80;71.40;;;;;;5072051;28;20327;-72
2023/05/12 03:16:26;;;;;;;10.15;4.25;;;12.90;71.60;;;;;;5047359;28;20224;-72
2023/05/12 03:19:15;;;;;;;6.57;3.90;;;13.00;71.50;;;;;;5054601;28;20886;-72
2023/05/12 03:22:06;;;;;;;5.50;4.00;;;13.00;70.80;;;;;;5061178;28;20223;-72
2023/05/12 03:24:57;;;;;;;5.47;3.90;;;13.10;70.80;;;;;;5055387;28;20216;-72
2023/05/12 03:27:46;;;;;;;9.95;4.13;;;13.00;70.40;;;;;;5050323;28;20227;-71
2023/05/12 03:30:35;;;;;;;6.80;3.80;;;13.10;71.10;;;;;;5074394;28;20231;-70
2023/05/12 03:33:25;;;;;;;6.50;3.90;;;13.20;70.50;;;;;;5050113;28;20236;-71
2023/05/12 03:36:14;;;;;;;6.85;3.67;;;13.20;70.10;;;;;;5056692;28;20422;-70
2023/05/12 03:39:04;;;;;;;7.60;3.60;;;13.20;70.70;;;;;;5059411;28;20227;-70
2023/05/12 03:41:55;;;;;;;7.05;4.18;;;13.20;70.50;;;;;;5055247;28;20220;-71
2023/05/12 03:44:44;;;;;;;10.07;4.20;;;13.20;70.20;;;;;;5062355;28;20228;-72
2023/05/12 03:47:34;;;;;;;5.95;3.90;;;13.10;70.30;;;;;;5057955;28;20250;-73
2023/05/12 03:50:24;;;;;;;11.80;3.67;;;13.10;69.70;;;;;;5058992;28;20235;-72
2023/05/12 03:53:13;;;;;;;5.70;3.80;;;13.10;70.80;;;;;;5056891;28;20233;-72
2023/05/12 03:56:04;;;;;;;6.63;4.13;;;13.30;71.00;;;;;;5059768;28;20701;-71
2023/05/12 03:58:57;;;;;;;11.30;4.18;;;13.30;70.30;;;;;;5071466;28;21340;-72
2023/05/12 04:01:46;;;;;;;7.18;4.10;;;13.30;69.90;;;;;;5058130;28;20220;-73
2023/05/12 04:04:35;;;;;;;6.65;3.67;;;13.40;70.00;;;;;;5052488;28;20234;-71
2023/05/12 04:07:24;;;;;;;8.38;4.00;;;13.50;69.60;;;;;;5050686;28;20235;-71
2023/05/12 04:10:13;;;;;;;6.35;3.60;;;13.20;70.50;;;;;;5054822;28;20220;-72
2023/05/12 04:13:02;;;;;;;8.77;3.90;;;13.30;70.30;;;;;;5059082;28;21022;-72
2023/05/12 04:15:55;;;;;;;5.75;4.03;;;13.50;70.50;;;;;;5077671;28;20341;-72
2023/05/12 04:18:44;;;;;;;5.70;3.80;;;13.70;70.10;;;;;;5092528;28;20211;-72
2023/05/12 04:21:33;;;;;;;6.25;4.07;;;13.70;69.20;;;;;;5082148;28;20670;-75
2023/05/12 04:24:23;;;;;;;8.00;4.30;;;13.40;69.10;;;;;;5081453;28;20701;-71
2023/05/12 04:27:13;;;;;;;6.93;4.07;;;13.60;70.10;;;;;;5082759;28;20222;-74
2023/05/12 04:30:02;;;;;;;6.15;3.88;;;13.70;70.00;;;;;;5081658;28;20230;-72
2023/05/12 04:32:57;;;;;;;9.15;3.88;;;13.80;69.40;;;;;;5079562;28;20217;-72
2023/05/12 04:35:46;;;;;;;8.88;3.92;;;13.40;69.20;;;;;;5074928;28;20231;-71
2023/05/12 04:38:35;;;;;;;7.43;3.70;;;13.30;70.00;;;;;;5081937;28;20272;-70
2023/05/12 04:41:24;;;;;;;6.25;3.55;;;13.50;70.10;;;;;;5075073;28;20220;-71
2023/05/12 04:44:12;;;;;;;5.38;3.92;;;13.60;69.50;;;;;;5076771;28;20219;-70
2023/05/12 04:47:02;;;;;;;6.85;3.75;;;13.70;69.50;;;;;;5076965;28;20330;-70
2023/05/12 04:49:52;;;;;;;6.28;3.45;;;13.70;68.70;;;;;;5083228;28;20264;-69
2023/05/12 04:52:41;;;;;;;7.28;3.75;;;13.70;68.90;;;;;;5071631;28;20227;-70
2023/05/12 04:55:30;;;;;;;7.10;3.50;;;13.70;69.10;;;;;;5077055;28;20318;-72
2023/05/12 04:58:19;;;;;;;5.93;3.70;;;14.00;69.00;;;;;;5080634;28;21009;-68
2023/05/12 05:01:08;;;;;;;4.25;3.30;;;14.30;69.10;;;;;;5078837;28;20777;-71
2023/05/12 05:03:58;;;;;;;5.80;3.60;;;14.40;68.50;;;;;;5080767;28;20211;-72
2023/05/12 05:06:48;;;;;;;9.60;3.60;;;14.50;68.70;;;;;;5094130;28;20216;-71
2023/05/12 05:09:37;;;;;;;5.32;3.47;;;14.50;68.40;;;;;;5093342;28;20786;-72
2023/05/12 05:12:26;;;;;;;5.30;3.45;;;14.40;68.10;;;;;;5082826;28;20437;-71
2023/05/12 05:15:15;;;;;;;8.80;3.55;;;14.60;67.10;;;;;;5099734;28;20233;-71
2023/05/12 05:18:04;;;;;;;5.32;3.72;;;14.50;67.60;;;;;;5082168;28;20316;-72
2023/05/12 05:20:53;;;;;;;5.28;3.78;;;14.30;67.90;;;;;;5063270;28;20529;-70
2023/05/12 05:23:48;;;;;;;6.40;3.85;;;14.70;68.30;;;;;;5081874;28;20268;-71
2023/05/12 05:26:37;;;;;;;7.57;3.47;;;14.70;68.20;;;;;;5076428;28;20235;-73
2023/05/12 05:29:26;;;;;;;10.38;3.45;;;15.00;68.50;;;;;;5102426;27;20287;-72
2023/05/12 05:32:15;;;;;;;6.80;3.67;;;15.30;68.10;;;;;;5103553;27;20225;-72
2023/05/12 05:35:05;;;;;;;5.70;3.40;;;15.10;66.20;;;;;;5077195;28;20227;-70
2023/05/12 05:37:55;;;;;;;8.32;3.58;;;15.00;67.00;;;;;;5085980;28;20218;-69
2023/05/12 05:40:47;;;;;;;10.32;3.92;;;15.20;67.80;;;;;;5094224;28;20219;-71
2023/05/12 05:43:43;;;;;;;4.28;3.30;;;14.90;66.40;;;;;;5111973;28;20235;-69
2023/05/12 05:46:33;;;;;;;8.05;3.67;;;14.60;67.50;;;;;;5079141;28;20345;-70
2023/05/12 05:49:22;;;;;;;8.80;3.80;;;15.00;67.90;;;;;;5074738;28;20668;-75
2023/05/12 05:52:12;;;;;;;11.85;3.88;;;16.10;65.20;;;;;;5086248;27;20697;-71
2023/05/12 05:55:01;;;;;;;7.90;3.50;;;17.10;62.70;;;;;;5085476;28;20231;-69
2023/05/12 05:57:52;;;;;;;4.70;3.28;;;18.80;60.50;;;;;;5073511;28;20219;-74
2023/05/12 06:00:42;;;;;;;7.30;3.28;;;19.80;57.40;;;;;;5081520;28;20676;-73
2023/05/12 06:03:31;;;;;;;5.93;3.50;;;20.90;56.10;;;;;;5074252;28;20264;-73
2023/05/12 06:06:20;;;;;;;9.43;3.40;;;22.10;54.20;;;;;;5058190;28;20220;-74
2023/05/12 06:09:11;;;;;;;7.22;3.00;;;20.70;54.30;;;;;;5081464;27;20287;-75
2023/05/12 06:12:00;;;;;;;7.80;3.08;;;19.80;56.20;;;;;;5071597;28;20228;-73
2023/05/12 06:14:51;;;;;;;5.55;3.30;;;18.30;57.80;;;;;;5072216;28;20232;-75
2023/05/12 06:17:41;;;;;;;9.00;3.45;;;17.30;60.80;;;;;;5066010;28;20250;-72
2023/05/12 06:20:32;;;;;;;21.40;4.38;;;17.10;61.60;;;;;;5074469;28;20702;-75
2023/05/12 06:23:22;;;;;;;15.40;3.70;;;16.90;62.30;;;;;;5089562;27;20297;-75
2023/05/12 06:26:11;;;;;;;5.15;3.25;;;16.60;62.90;;;;;;5092914;28;20215;-77
2023/05/12 06:29:00;;;;;;;10.38;3.50;;;16.80;64.30;;;;;;5089871;28;20233;-76
2023/05/12 06:31:50;;;;;;;6.25;3.08;;;17.70;62.30;;;;;;5087413;28;20229;-76
2023/05/12 06:34:39;;;;;;;9.07;3.35;;;19.60;59.00;;;;;;5094720;28;20569;-76
2023/05/12 06:37:27;;;;;;;6.07;3.28;;;19.30;58.40;;;;;;5083792;28;20215;-76
2023/05/12 06:40:17;;;;;;;13.75;3.30;;;18.70;59.50;;;;;;5078546;28;20240;-75
2023/05/12 06:43:06;;;;;;;10.65;3.53;;;18.60;59.40;;;;;;5079454;28;20239;-74
2023/05/12 06:45:56;;;;;;;10.68;3.58;;;18.00;61.20;;;;;;5091012;28;20263;-74
2023/05/12 06:48:47;;;;;;;7.72;2.90;;;18.20;61.30;;;;;;5081113;28;21027;-77
2023/05/12 06:51:36;;;;;;;7.95;2.95;;;18.50;60.60;;;;;;5083492;28;20229;-73
2023/05/12 06:54:25;;;;;;;6.35;2.85;;;18.70;60.00;;;;;;5082999;28;20318;-73
2023/05/12 06:57:14;;;;;;;8.40;3.08;;;18.70;59.90;;;;;;5087084;28;20744;-74
2023/05/12 07:00:03;;;;;;;6.50;2.80;;;18.70;60.70;;;;;;5072653;28;20247;-76
2023/05/12 07:02:52;;;;;;;7.10;3.15;;;18.70;60.20;;;;;;5079266;28;20250;-76
2023/05/12 07:05:43;;;;;;;5.43;2.83;;;18.80;60.20;;;;;;5082316;28;20219;-78
2023/05/12 07:08:33;;;;;;;4.88;2.90;;;18.80;60.50;;;;;;5097826;28;20227;-75
2023/05/12 07:11:22;;;;;;;8.07;2.78;;;19.20;60.50;;;;;;5081990;28;20440;-74
2023/05/12 07:14:11;;;;;;;6.68;2.75;;;19.40;60.30;;;;;;5060390;28;21006;-75
2023/05/12 07:17:00;;;;;;;9.43;3.00;;;19.60;59.10;;;;;;5074676;28;20273;-70
2023/05/12 07:19:48;;;;;;;5.05;2.60;;;19.30;58.70;;;;;;5081969;28;20311;-70
2023/05/12 07:22:39;;;;;;;6.50;2.83;;;19.70;58.80;;;;;;5075959;28;20257;-71
2023/05/12 07:25:28;;;;;;;5.03;2.53;;;20.30;58.90;;;;;;5075062;28;20230;-72
2023/05/12 07:28:17;;;;;;;6.53;2.63;;;20.60;57.50;;;;;;5079763;28;20215;-71
2023/05/12 07:31:07;;;;;;;8.60;3.13;;;20.90;56.80;;;;;;5098781;28;20215;-71
2023/05/12 07:33:56;;;;;;;8.30;3.47;;;20.80;55.10;;;;;;5103015;27;20225;-73
2023/05/12 07:36:45;;;;;;;6.55;2.60;;;21.20;55.40;;;;;;5085906;28;20288;-71
2023/05/12 07:39:36;;;;;;;5.78;2.85;;;21.30;53.90;;;;;;5087881;28;20231;-72
2023/05/12 07:42:25;;;;;;;4.70;2.80;;;21.60;54.90;;;;;;5092159;27;20226;-71
2023/05/12 07:45:15;;;;;;;9.65;2.88;;;21.00;54.40;;;;;;5103985;27;20218;-71
2023/05/12 07:48:04;;;;;;;5.32;2.50;;;21.20;53.80;;;;;;5086234;27;20275;-71
2023/05/12 07:50:53;;;;;;;6.40;3.08;;;21.20;54.00;;;;;;5087820;28;20226;-71
2023/05/12 07:53:41;;;;;;;7.25;2.60;;;21.90;52.80;;;;;;5091526;27;20316;-73
2023/05/12 07:56:32;;;;;;;9.18;2.65;;;21.90;52.20;;;;;;5089772;27;20232;-72
2023/05/12 07:59:21;;;;;;;3.63;2.70;;;22.50;52.20;;;;;;5083341;28;20229;-71
2023/05/12 08:02:10;;;;;;;7.35;2.55;;;21.70;52.10;;;;;;5101774;27;20215;-72
2023/05/12 08:04:58;;;;;;;4.93;2.80;;;22.70;51.70;;;;;;5087179;27;20222;-71
2023/05/12 08:07:47;;;;;;;4.13;2.65;;;22.80;51.20;;;;;;5099344;28;20732;-70
2023/05/12 08:10:36;;;;;;;4.72;2.40;;;23.50;50.20;;;;;;5108328;28;20270;-73
2023/05/12 08:13:26;;;;;;;6.00;2.63;;;23.60;47.90;;;;;;5085093;28;20228;-70
2023/05/12 08:16:16;;;;;;;11.10;2.70;;;22.40;48.90;;;;;;5098211;28;20226;-71
2023/05/12 08:19:05;;;;;;;5.30;2.17;;;22.90;48.70;;;;;;5074843;28;20379;-69
2023/05/12 08:21:54;;;;;;;15.15;2.92;;;22.50;48.30;;;;;;5070762;28;20243;-70
2023/05/12 08:24:43;;;;;;;5.15;2.45;;;23.30;47.00;;;;;;5074077;28;20291;-71
2023/05/12 08:27:32;;;;;;;4.43;2.60;;;23.00;46.50;;;;;;5071167;28;20228;-71
2023/05/12 08:30:22;;;;;;;14.88;2.58;;;22.90;45.20;;;;;;5083519;28;20284;-71
2023/05/12 08:33:11;;;;;;;7.63;2.72;;;23.00;45.00;;;;;;5078268;28;20842;-73
2023/05/12 08:36:01;;;;;;;5.43;2.60;;;23.50;43.50;;;;;;5081636;28;20243;-72
2023/05/12 08:38:50;;;;;;;12.07;2.80;;;23.50;43.50;;;;;;5080442;28;20782;-71
2023/05/12 08:41:43;;;;;;;4.93;2.53;;;23.70;44.30;;;;;;5076362;28;20639;-71
2023/05/12 08:44:32;;;;;;;7.78;2.72;;;23.80;44.60;;;;;;5081385;28;20311;-71
2023/05/12 08:47:24;;;;;;;4.30;2.78;;;24.30;43.80;;;;;;5084046;28;20223;-71
2023/05/12 08:50:17;;;;;;;9.88;3.35;;;24.30;43.30;;;;;;5075347;28;20242;-72
2023/05/12 08:53:08;;;;;;;7.97;2.80;;;23.10;43.90;;;;;;5079447;28;20539;-79
2023/05/12 08:56:01;;;;;;;9.32;3.10;;;24.10;44.20;;;;;;5097972;28;20255;-81
2023/05/12 08:59:10;;;;;;;7.22;2.63;;;24.70;43.60;;;;;;5088668;28;20227;-78
2023/05/12 09:02:01;;;;;;;7.88;2.53;;;25.20;42.60;;;;;;5089665;28;20804;-76
2023/05/12 09:04:53;;;;;;;7.90;2.70;;;24.00;42.00;;;;;;5078308;28;20228;-72
2023/05/12 09:07:44;;;;;;;4.78;2.85;;;24.30;42.30;;;;;;5069417;28;20308;-72
2023/05/12 09:10:33;;;;;;;6.80;2.80;;;23.80;42.60;;;;;;5079242;28;20247;-73
2023/05/12 09:13:29;;;;;;;7.90;2.90;;;24.20;43.80;;;;;;5084238;27;20325;-73
2023/05/12 09:16:21;;;;;;;5.57;2.65;;;24.40;42.20;;;;;;5076951;28;20247;-72
2023/05/12 09:19:11;;;;;;;7.22;2.92;;;24.90;42.10;;;;;;5060752;28;20363;-72
2023/05/12 09:22:02;;;;;;;11.38;2.92;;;24.30;42.00;;;;;;5078573;28;20232;-72
2023/05/12 09:24:51;;;;;;;6.18;2.60;;;24.60;41.90;;;;;;5095576;28;20310;-72
2023/05/12 09:27:40;;;;;;;7.50;2.90;;;25.50;41.90;;;;;;5081081;28;20228;-72
2023/05/12 09:30:30;;;;;;;5.28;2.85;;;26.70;40.50;;;;;;5084702;28;20227;-72
2023/05/12 09:33:21;;;;;;;6.03;2.95;;;27.20;40.30;;;;;;5085187;28;20232;-72
2023/05/12 09:36:10;;;;;;;5.22;2.95;;;25.90;40.30;;;;;;5083898;28;20585;-72
2023/05/12 09:39:03;;;;;;;5.43;2.83;;;26.70;40.30;;;;;;5096773;28;20846;-73
2023/05/12 09:41:52;;;;;;;6.78;3.00;;;26.80;39.00;;;;;;5083728;28;21046;-71
2023/05/12 09:44:41;;;;;;;6.43;3.40;;;27.60;39.30;;;;;;5076636;28;20247;-73
2023/05/12 09:47:36;;;;;;;8.35;3.08;;;26.70;39.90;;;;;;5071463;28;20227;-72
2023/05/12 09:50:25;;;;;;;6.30;2.80;;;28.00;39.60;;;;;;5082503;28;20220;-71
2023/05/12 09:53:17;;;;;;;7.57;2.70;;;29.60;38.80;;;;;;5077172;28;20239;-72
2023/05/12 09:56:08;;;;;;;8.82;3.35;;;27.50;39.60;;;;;;5086318;28;20247;-72
2023/05/12 09:58:58;;;;;;;5.82;2.70;;;29.70;38.70;;;;;;5074432;28;20278;-72
2023/05/12 10:01:47;;;;;;;7.15;3.58;;;31.50;36.70;;;;;;5081376;28;20616;-72
2023/05/12 10:04:44;;;;;;;5.25;3.20;;;31.80;35.70;;;;;;5081116;28;20602;-71
2023/05/12 10:07:33;;;;;;;6.90;2.95;;;31.50;36.50;;;;;;5082137;28;20235;-71
2023/05/12 10:10:26;;;;;;;7.10;3.13;;;31.00;35.90;;;;;;5083378;28;20294;-71
2023/05/12 10:13:16;;;;;;;7.15;3.20;;;31.00;35.00;;;;;;5085294;28;20218;-72
2023/05/12 10:16:09;;;;;;;18.77;3.47;;;31.30;35.00;;;;;;5076307;28;20468;-72
2023/05/12 10:18:59;;;;;;;8.85;3.40;;;31.10;34.80;;;;;;5075150;28;20235;-72
2023/05/12 10:21:49;;;;;;;7.63;2.97;;;30.90;35.70;;;;;;5082908;28;20246;-71
2023/05/12 10:24:39;;;;;;;5.22;3.20;;;31.30;36.60;;;;;;5090677;28;20219;-72
2023/05/12 10:27:28;;;;;;;8.48;3.33;;;33.30;36.00;;;;;;5077934;28;20223;-73
2023/05/12 10:30:19;;;;;;;7.38;2.83;;;32.00;35.50;;;;;;5087599;28;20221;-72
2023/05/12 10:33:10;;;;;;;4.75;2.67;;;32.80;34.30;;;;;;5086395;28;20219;-72
2023/05/12 10:35:59;;;;;;;9.02;2.70;;;33.20;33.50;;;;;;5084735;28;20229;-72
2023/05/12 10:38:49;;;;;;;12.80;2.80;;;33.10;32.60;;;;;;5083135;28;20231;-72
2023/05/12 10:41:38;;;;;;;7.70;2.58;;;32.70;33.50;;;;;;5077249;28;20237;-72
2023/05/12 10:44:28;;;;;;;5.47;2.80;;;;;;;;;;5078078;28;20234;-72
2023/05/12 10:47:18;;;;;;;14.15;2.53;;;35.90;30.70;;;;;;5072447;28;20272;-73
2023/05/12 10:50:12;;;;;;;12.43;3.03;;;34.70;30.90;;;;;;5091130;28;20237;-72
2023/05/12 10:53:01;;;;;;;7.45;2.70;;;34.50;31.40;;;;;;5091073;28;20215;-71
2023/05/12 10:55:50;;;;;;;6.78;2.30;;;36.60;30.00;;;;;;5085091;28;20280;-71
2023/05/12 10:59:04;;;;;;;7.20;2.72;;;36.00;30.80;;;;;;5084895;28;20703;-72
2023/05/12 11:01:59;;;;;;;6.85;2.47;;;35.20;31.90;;;;;;5082199;28;20224;-71
2023/05/12 11:04:52;;;;;;;8.13;3.03;;;34.40;32.80;;;;;;5073008;28;20258;-71
2023/05/12 11:07:47;;;;;;;5.70;2.40;;;36.90;31.40;;;;;;5079346;28;20332;-72
2023/05/12 11:10:42;;;;;;;7.03;2.85;;;36.00;31.50;;;;;;5087509;28;20231;-73
2023/05/12 11:13:31;;;;;;;9.63;2.55;;;38.10;30.80;;;;;;5079856;28;20223;-73
2023/05/12 11:16:21;;;;;;;9.75;2.90;;;36.80;31.50;;;;;;5104098;28;20214;-71
2023/05/12 11:19:11;;;;;;;7.88;2.58;;;36.70;30.30;;;;;;5093869;28;20226;-71
2023/05/12 11:22:07;;;;;;;7.28;2.63;;;38.40;29.60;;;;;;5085871;28;20294;-72
2023/05/12 11:24:57;;;;;;;9.30;3.05;;;35.10;30.90;;;;;;5087523;28;20222;-71
2023/05/12 11:27:47;;;;;;;9.40;3.10;;;36.50;30.50;;;;;;5096839;28;20219;-72
2023/05/12 11:30:49;;;;;;;12.48;3.25;;;39.10;29.50;;;;;;5102740;28;20230;-72
2023/05/12 11:33:41;;;;;;;7.90;2.60;;;35.40;30.50;;;;;;5063101;28;20240;-72
2023/05/12 11:36:36;;;;;;;6.40;2.65;;;36.40;30.60;;;;;;5088529;28;20301;-72
2023/05/12 11:39:29;;;;;;;8.27;3.00;;;36.50;30.10;;;;;;5099826;28;20218;-72
2023/05/12 11:42:19;;;;;;;5.45;2.60;;;38.80;30.00;;;;;;5087846;28;20222;-72
2023/05/12 11:45:23;;;;;;;6.75;2.90;;;40.60;28.80;;;;;;5104714;28;20312;-72
2023/05/12 11:48:17;;;;;;;6.67;2.40;;;39.80;28.60;;;;;;5088838;28;20539;-73
2023/05/12 11:51:07;;;;;;;5.03;2.60;;;40.40;28.90;;;;;;5085045;28;20298;-71
2023/05/12 11:53:56;;;;;;;7.07;2.58;;;40.60;28.90;;;;;;5098693;28;20347;-72
2023/05/12 11:56:50;;;;;;;9.50;3.15;;;40.80;28.20;;;;;;5095414;28;20317;-72
2023/05/12 11:59:39;;;;;;;4.10;2.60;;;41.60;28.20;;;;;;5090718;28;20215;-72
2023/05/12 12:02:29;;;;;;;6.82;2.58;;;37.70;28.50;;;;;;5089599;28;20704;-72
2023/05/12 12:05:19;;;;;;;7.45;2.28;;;38.40;28.90;;;;;;5100211;28;20523;-72
2023/05/12 12:08:12;;;;;;;5.82;2.40;;;36.90;29.60;;;;;;5096349;28;20673;-73
2023/05/12 12:11:03;;;;;;;5.50;2.67;;;41.00;28.30;;;;;;5089297;28;20234;-73
2023/05/12 12:13:56;;;;;;;13.63;2.50;;;39.90;28.30;;;;;;5101562;28;20218;-72
2023/05/12 12:16:45;;;;;;;4.50;2.40;;;42.00;27.80;;;;;;5099839;28;20251;-72
2023/05/12 12:19:34;;;;;;;3.30;2.60;;;42.30;27.50;;;;;;5101353;28;20244;-73
2023/05/12 12:22:22;;;;;;;3.30;2.15;;;42.60;28.00;;;;;;5096657;28;20230;-73
2023/05/12 12:25:11;;;;;;;6.22;2.70;;;43.40;27.40;;;;;;5100533;28;20234;-78
2023/05/12 12:28:01;;;;;;;5.68;2.28;;;41.50;27.40;;;;;;5099805;28;20222;-74
2023/05/12 12:30:51;;;;;;;6.93;2.50;;;;;;;;;;5087488;28;20304;-73
2023/05/12 12:33:41;;;;;;;5.88;2.80;;;34.90;28.40;;;;;;5093320;28;20219;-74
2023/05/12 12:36:31;;;;;;;6.45;2.47;;;30.60;32.10;;;;;;5101295;28;20547;-74
2023/05/12 12:39:20;;;;;;;4.00;2.60;;;28.10;34.00;;;;;;5099241;28;20241;-75
2023/05/12 12:42:09;;;;;;;8.93;3.17;;;26.10;35.80;;;;;;5104155;28;20305;-72
2023/05/12 12:44:58;;;;;;;11.90;2.88;;;25.60;36.80;;;;;;5105925;28;20239;-73
2023/05/12 12:47:50;;;;;;;7.38;2.80;;;26.00;37.50;;;;;;5089134;28;20571;-77
2023/05/12 12:50:40;;;;;;;10.50;3.20;;;25.60;37.80;;;;;;5106070;28;20230;-73
2023/05/12 12:53:29;;;;;;;7.95;2.90;;;24.60;41.30;;;;;;5092928;28;20226;-72
2023/05/12 12:56:18;;;;;;;7.40;3.15;;;23.40;45.00;;;;;;5103955;27;20308;-73
2023/05/12 12:59:07;;;;;;;14.20;2.95;;;23.60;40.70;;;;;;5086901;28;20585;-79
2023/05/12 13:01:58;;;;;;;5.97;2.88;;;23.30;42.20;;;;;;5104501;28;20223;-73
2023/05/12 13:04:49;;;;;;;3.85;2.85;;;23.70;47.20;;;;;;5094330;28;20289;-74
2023/05/12 13:07:38;;;;;;;5.90;2.70;;;24.10;47.50;;;;;;5083791;28;20227;-71
2023/05/12 13:10:27;;;;;;;5.47;3.55;;;24.20;45.40;;;;;;5102412;27;20284;-73
2023/05/12 13:13:16;;;;;;;5.10;2.90;;;24.10;45.40;;;;;;5094442;28;20318;-72
2023/05/12 13:16:06;;;;;;;7.05;3.60;;;23.60;47.40;;;;;;5086492;28;20801;-74
2023/05/12 13:18:54;;;;;;;6.88;2.83;;;23.40;43.50;;;;;;5068113;28;20298;-70
2023/05/12 13:21:45;;;;;;;6.13;2.63;;;23.20;43.80;;;;;;5070342;28;20225;-79
2023/05/12 13:24:34;;;;;;;5.25;2.70;;;23.10;41.50;;;;;;5083479;28;20598;-73
2023/05/12 13:27:23;;;;;;;4.55;2.42;;;23.20;41.40;;;;;;5086602;28;20294;-72
2023/05/12 13:30:11;;;;;;;7.35;3.13;;;23.20;41.10;;;;;;5081213;28;20219;-71
2023/05/12 13:33:01;;;;;;;6.03;3.15;;;22.90;41.90;;;;;;5093753;28;20242;-71
2023/05/12 13:35:54;;;;;;;4.82;2.63;;;23.10;41.90;;;;;;5081685;28;20541;-71
2023/05/12 13:38:44;;;;;;;10.60;3.00;;;22.80;41.70;;;;;;5069380;28;20341;-71
2023/05/12 13:41:36;;;;;;;6.18;2.67;;;22.50;42.20;;;;;;5058654;28;20220;-68
2023/05/12 13:44:26;;;;;;;6.15;3.05;;;22.40;42.70;;;;;;5057241;28;20216;-73
2023/05/12 13:47:15;;;;;;;4.43;2.75;;;22.50;42.30;;;;;;5075439;28;20303;-73
2023/05/12 13:50:05;;;;;;;3.40;2.40;;;22.50;42.30;;;;;;5087611;27;20219;-72
2023/05/12 13:52:54;;;;;;;9.18;2.72;;;22.30;42.50;;;;;;5092462;28;20625;-74
2023/05/12 13:55:44;;;;;;;5.78;2.78;;;22.40;42.50;;;;;;5072182;28;20224;-75
2023/05/12 13:58:33;;;;;;;5.70;2.72;;;22.20;42.50;;;;;;5071291;28;20265;-75
2023/05/12 14:01:22;;;;;;;5.50;2.38;;;22.40;42.10;;;;;;5071780;28;20312;-74
2023/05/12 14:04:11;;;;;;;3.60;2.58;;;22.10;42.30;;;;;;5046227;28;20553;-73
2023/05/12 14:07:00;;;;;;;5.03;2.92;;;21.70;42.30;;;;;;5057908;28;20231;-74
2023/05/12 14:09:49;;;;;;;7.35;3.03;;;21.30;43.20;;;;;;5049256;28;20220;-72
2023/05/12 14:12:40;;;;;;;8.32;2.90;;;21.50;43.80;;;;;;5059420;28;20228;-73
2023/05/12 14:15:28;;;;;;;5.82;2.85;;;21.80;43.00;;;;;;5088527;28;20242;-73
2023/05/12 14:18:36;;;;;;;3.20;2.53;;;22.10;44.00;;;;;;5088907;28;20238;-73
2023/05/12 14:21:25;;;;;;;6.35;2.78;;;22.10;43.20;;;;;;5086344;28;20323;-74
2023/05/12 14:24:14;;;;;;;8.30;2.47;;;21.80;42.80;;;;;;5080569;28;20562;-74
2023/05/12 14:27:04;;;;;;;6.88;2.90;;;21.40;43.30;;;;;;5082517;28;20220;-72
2023/05/12 14:29:54;;;;;;;5.65;2.45;;;21.10;43.90;;;;;;5077208;28;20219;-73
2023/05/12 14:32:43;;;;;;;4.40;2.45;;;21.40;44.50;;;;;;5082768;28;20223;-73
2023/05/12 14:35:32;;;;;;;6.68;2.90;;;21.30;44.00;;;;;;5090541;28;20309;-74
2023/05/12 14:38:21;;;;;;;7.10;2.92;;;21.10;44.40;;;;;;5079456;28;20235;-72
2023/05/12 14:41:10;;;;;;;3.60;2.50;;;21.40;45.50;;;;;;5079752;28;20223;-73
2023/05/12 14:44:00;;;;;;;5.43;2.60;;;21.40;45.10;;;;;;5091798;28;20235;-76